createdAt,value
2018-12-12T00:02:41.000Z,78.68
2018-12-12T00:06:05.740Z,78.85
2018-12-12T00:09:30.454Z,79.31
2018-12-12T00:12:55.192Z,79.31
2018-12-12T00:16:19.910Z,79.42
2018-12-12T00:19:44.662Z,78.92
2018-12-12T00:23:09.380Z,78.90
2018-12-12T00:26:34.144Z,79.45
2018-12-12T00:29:58.866Z,79.65
2018-12-12T00:33:23.558Z,79.58
2018-12-12T00:36:48.305Z,79.65
2018-12-12T00:40:13.075Z,78.45
2018-12-12T00:43:37.769Z,78.90
2018-12-12T00:47:02.539Z,78.32
2018-12-12T00:50:27.251Z,79.32
2018-12-12T00:53:51.942Z,79.18
2018-12-12T00:57:16.789Z,79.09
2018-12-12T01:00:41.571Z,78.67
2018-12-12T01:04:06.324Z,79.19
2018-12-12T01:07:31.048Z,78.31
2018-12-12T01:11:00.894Z,79.30
2018-12-12T01:14:25.819Z,78.67
2018-12-12T01:17:50.485Z,78.47
2018-12-12T01:21:15.227Z,78.68
2018-12-12T01:24:39.907Z,79.17
2018-12-12T01:28:04.624Z,78.97
2018-12-12T01:31:29.308Z,79.24
2018-12-12T01:34:53.984Z,79.68
2018-12-12T01:38:18.775Z,79.62
2018-12-12T01:41:43.516Z,80.02
2018-12-12T01:45:08.586Z,79.56
2018-12-12T01:48:33.285Z,79.77
2018-12-12T01:51:58.041Z,80.38
2018-12-12T01:55:22.837Z,79.44
2018-12-12T01:58:47.581Z,79.66
2018-12-12T02:02:12.320Z,79.63
2018-12-12T02:05:37.071Z,80.08
2018-12-12T02:09:01.867Z,80.21
2018-12-12T02:12:26.598Z,79.74
2018-12-12T02:15:51.363Z,79.87
2018-12-12T02:19:16.076Z,79.13
2018-12-12T02:22:40.805Z,79.68
2018-12-12T02:26:05.496Z,79.82
2018-12-12T02:29:30.222Z,80.16
2018-12-12T02:32:54.935Z,80.05
2018-12-12T02:36:19.684Z,80.39
2018-12-12T02:39:44.452Z,80.33
2018-12-12T02:43:09.119Z,79.80
2018-12-12T02:46:33.774Z,79.91
2018-12-12T02:49:58.528Z,80.10
2018-12-12T02:53:23.281Z,79.43
2018-12-12T02:56:47.963Z,80.50
2018-12-12T03:00:12.657Z,80.43
2018-12-12T03:03:37.357Z,80.22
2018-12-12T03:07:02.086Z,80.64
2018-12-12T03:10:26.767Z,80.61
2018-12-12T03:13:51.712Z,79.97
2018-12-12T03:17:16.554Z,80.05
2018-12-12T03:20:41.291Z,80.07
2018-12-12T03:24:06.083Z,81.04
2018-12-12T03:27:30.970Z,81.10
2018-12-12T03:30:55.780Z,80.71
2018-12-12T03:34:20.471Z,81.33
2018-12-12T03:37:46.055Z,80.85
2018-12-12T03:41:10.890Z,80.50
2018-12-12T03:44:35.575Z,81.25
2018-12-12T03:48:00.331Z,80.89
2018-12-12T03:51:25.026Z,81.34
2018-12-12T03:54:49.695Z,80.45
2018-12-12T03:58:14.392Z,80.26
2018-12-12T04:01:39.155Z,80.79
2018-12-12T04:05:04.156Z,80.49
2018-12-12T04:08:28.886Z,80.70
2018-12-12T04:11:53.567Z,81.15
2018-12-12T04:15:18.338Z,81.86
2018-12-12T04:18:43.014Z,81.84
2018-12-12T04:22:07.768Z,81.58
2018-12-12T04:25:32.477Z,81.33
2018-12-12T04:28:57.247Z,81.06
2018-12-12T04:32:21.974Z,81.28
2018-12-12T04:35:46.661Z,81.73
2018-12-12T04:39:11.494Z,80.83
2018-12-12T04:42:36.228Z,82.25
2018-12-12T04:46:00.958Z,81.90
2018-12-12T04:49:25.625Z,81.73
2018-12-12T04:52:50.324Z,81.81
2018-12-12T04:56:15.082Z,82.40
2018-12-12T04:59:39.801Z,82.33
2018-12-12T05:03:04.760Z,82.03
2018-12-12T05:06:29.434Z,82.07
2018-12-12T05:09:54.142Z,82.18
2018-12-12T05:13:18.859Z,81.36
2018-12-12T05:16:43.561Z,82.04
2018-12-12T05:20:08.581Z,81.35
2018-12-12T05:23:33.270Z,81.17
2018-12-12T05:26:57.963Z,80.81
2018-12-12T05:30:22.636Z,81.28
2018-12-12T05:33:47.362Z,81.66
2018-12-12T05:37:12.011Z,80.40
2018-12-12T05:40:36.954Z,81.18
2018-12-12T05:44:01.690Z,81.54
2018-12-12T05:47:26.597Z,81.00
2018-12-12T05:50:51.246Z,82.11
2018-12-12T05:54:15.880Z,80.72
2018-12-12T05:57:40.565Z,81.69
2018-12-12T06:01:05.288Z,82.24
2018-12-12T06:04:30.004Z,81.10
2018-12-12T06:07:54.915Z,81.44
2018-12-12T06:11:19.678Z,81.38
2018-12-12T06:14:44.353Z,81.35
2018-12-12T06:18:09.048Z,81.46
2018-12-12T06:21:33.821Z,81.21
2018-12-12T06:24:59.630Z,80.98
2018-12-12T06:28:24.470Z,81.24
2018-12-12T06:31:49.132Z,80.62
2018-12-12T06:35:13.874Z,81.39
2018-12-12T06:38:38.564Z,81.33
2018-12-12T06:42:03.232Z,81.75
2018-12-12T06:45:27.932Z,81.66
2018-12-12T06:48:52.727Z,81.76
2018-12-12T06:52:17.433Z,81.74
2018-12-12T06:55:42.123Z,81.81
2018-12-12T06:59:06.770Z,82.18
2018-12-12T07:02:31.484Z,82.08
2018-12-12T07:09:31.852Z,81.20
2018-12-12T07:12:56.607Z,82.00
2018-12-12T07:16:21.367Z,81.25
2018-12-12T07:19:46.062Z,81.96
2018-12-12T07:23:10.759Z,82.21
2018-12-12T07:26:35.451Z,82.20
2018-12-12T07:30:00.147Z,82.59
2018-12-12T07:33:24.859Z,80.93
2018-12-12T07:36:49.545Z,81.08
2018-12-12T07:40:14.241Z,81.54
2018-12-12T07:43:38.851Z,81.59
2018-12-12T07:47:03.690Z,81.92
2018-12-12T07:50:28.380Z,81.92
2018-12-12T07:53:53.075Z,81.45
2018-12-12T07:57:17.760Z,81.96
2018-12-12T08:00:42.423Z,81.72
2018-12-12T08:04:07.119Z,81.54
2018-12-12T08:07:31.793Z,81.35
2018-12-12T08:10:56.478Z,81.83
2018-12-12T08:14:21.146Z,81.78
2018-12-12T08:17:45.889Z,81.18
2018-12-12T08:21:10.578Z,81.57
2018-12-12T08:24:35.254Z,81.49
2018-12-12T08:27:59.932Z,81.41
2018-12-12T08:31:24.576Z,81.44
2018-12-12T08:34:49.289Z,81.18
2018-12-12T08:38:13.921Z,80.91
2018-12-12T08:41:38.536Z,80.94
2018-12-12T08:45:03.520Z,81.38
2018-12-12T08:48:28.233Z,80.44
2018-12-12T08:51:52.911Z,80.53
2018-12-12T08:55:18.008Z,80.60
2018-12-12T08:58:42.765Z,79.61
2018-12-12T09:02:07.430Z,80.15
2018-12-12T09:05:32.445Z,79.54
2018-12-12T09:08:57.107Z,80.01
2018-12-12T09:12:21.784Z,79.53
2018-12-12T09:15:46.557Z,79.75
2018-12-12T09:19:11.299Z,79.62
2018-12-12T09:22:36.030Z,79.59
2018-12-12T09:26:00.676Z,79.23
2018-12-12T09:29:25.426Z,79.43
2018-12-12T09:32:50.062Z,79.38
2018-12-12T09:36:14.824Z,79.32
2018-12-12T09:39:40.949Z,78.86
2018-12-12T09:43:06.526Z,79.56
2018-12-12T09:46:31.661Z,79.39
2018-12-12T09:49:56.485Z,79.71
2018-12-12T09:53:21.337Z,79.43
2018-12-12T09:56:46.884Z,79.00
2018-12-12T10:00:11.694Z,79.06
2018-12-12T10:03:36.643Z,78.33
2018-12-12T10:07:01.582Z,77.56
2018-12-12T10:10:26.349Z,74.57
2018-12-12T10:13:51.137Z,75.67
2018-12-12T10:17:16.022Z,76.03
2018-12-12T10:20:40.731Z,75.98
2018-12-12T10:24:05.519Z,75.50
2018-12-12T10:27:30.276Z,72.95
2018-12-12T10:30:55.047Z,75.34
2018-12-12T10:34:19.800Z,74.44
2018-12-12T10:37:44.474Z,74.29
2018-12-12T10:41:09.225Z,74.76
2018-12-12T10:44:33.960Z,74.13
2018-12-12T10:47:58.994Z,74.34
2018-12-12T10:51:23.742Z,72.51
2018-12-12T10:54:48.440Z,72.56
2018-12-12T10:58:13.087Z,73.33
2018-12-12T11:01:43.028Z,72.34
2018-12-12T11:05:08.307Z,72.21
2018-12-12T11:08:33.053Z,71.85
2018-12-12T11:11:57.829Z,70.43
2018-12-12T11:15:23.071Z,71.50
2018-12-12T11:18:47.717Z,70.60
2018-12-12T11:22:12.543Z,70.68
2018-12-12T11:25:37.286Z,69.29
2018-12-12T11:29:02.119Z,70.85
2018-12-12T11:32:26.935Z,69.88
2018-12-12T11:35:52.125Z,69.30
2018-12-12T11:39:17.117Z,69.03
2018-12-12T11:42:43.103Z,69.47
2018-12-12T11:46:07.849Z,70.76
2018-12-12T11:49:32.653Z,71.94
2018-12-12T11:52:57.394Z,71.30
2018-12-12T11:56:22.076Z,70.83
2018-12-12T11:59:46.801Z,68.99
2018-12-12T12:03:11.468Z,69.00
2018-12-12T12:06:36.105Z,69.29
2018-12-12T12:10:00.775Z,69.10
2018-12-12T12:13:25.586Z,69.23
2018-12-12T12:16:50.276Z,68.76
2018-12-12T12:20:14.991Z,68.98
2018-12-12T12:23:39.691Z,68.51
2018-12-12T12:27:04.477Z,68.25
2018-12-12T12:30:29.153Z,67.79
2018-12-12T12:33:54.035Z,67.52
2018-12-12T12:37:18.731Z,67.52
2018-12-12T12:40:43.484Z,67.21
2018-12-12T12:44:08.202Z,67.07
2018-12-12T12:47:32.912Z,67.73
2018-12-12T12:50:57.617Z,69.07
2018-12-12T12:54:22.260Z,67.45
2018-12-12T12:57:46.990Z,68.13
2018-12-12T13:01:11.667Z,67.54
2018-12-12T13:04:36.400Z,69.24
2018-12-12T13:08:01.089Z,69.46
2018-12-12T13:11:25.740Z,68.15
2018-12-12T13:14:50.424Z,66.40
2018-12-12T13:18:15.285Z,66.39
2018-12-12T13:21:40.010Z,67.11
2018-12-12T13:25:04.710Z,68.33
2018-12-12T13:28:31.840Z,68.16
2018-12-12T13:31:56.821Z,68.60
2018-12-12T13:35:21.487Z,68.70
2018-12-12T13:38:46.119Z,69.17
2018-12-12T13:42:10.842Z,70.26
2018-12-12T13:45:35.516Z,69.41
2018-12-12T13:49:00.204Z,65.90
2018-12-12T13:52:24.990Z,65.01
2018-12-12T13:55:49.799Z,65.26
2018-12-12T13:59:14.462Z,66.60
2018-12-12T14:02:39.239Z,65.69
2018-12-12T14:06:04.091Z,67.81
2018-12-12T14:09:28.716Z,67.79
2018-12-12T14:12:53.389Z,68.92
2018-12-12T14:16:18.004Z,68.66
2018-12-12T14:19:42.667Z,68.79
2018-12-12T14:23:07.397Z,68.01
2018-12-12T14:26:32.103Z,68.60
2018-12-12T14:29:56.769Z,69.42
2018-12-12T14:33:21.511Z,68.30
2018-12-12T14:36:46.217Z,69.70
2018-12-12T14:40:10.945Z,70.48
2018-12-12T14:43:35.822Z,71.50
2018-12-12T14:47:00.484Z,71.27
2018-12-12T14:50:25.281Z,72.22
2018-12-12T14:53:49.970Z,72.54
2018-12-12T14:57:14.685Z,73.32
2018-12-12T15:00:39.434Z,74.11
2018-12-12T15:04:04.125Z,73.42
2018-12-12T15:07:28.780Z,74.38
2018-12-12T15:10:53.484Z,74.27
2018-12-12T15:14:18.190Z,74.64
2018-12-12T15:17:42.881Z,74.60
2018-12-12T15:21:07.546Z,74.63
2018-12-12T15:24:32.212Z,75.33
2018-12-12T15:27:56.955Z,74.95
2018-12-12T15:31:21.631Z,74.77
2018-12-12T15:34:46.316Z,73.39
2018-12-12T15:38:10.989Z,74.49
2018-12-12T15:41:36.240Z,75.14
2018-12-12T15:45:00.922Z,74.73
2018-12-12T15:48:25.601Z,74.35
2018-12-12T15:51:50.336Z,74.34
2018-12-12T15:55:15.075Z,73.88
2018-12-12T15:58:39.835Z,73.77
2018-12-12T16:02:04.718Z,73.47
2018-12-12T16:05:29.396Z,73.76
2018-12-12T16:08:54.113Z,74.56
2018-12-12T16:12:18.795Z,74.12
2018-12-12T16:15:43.519Z,74.97
2018-12-12T16:19:08.227Z,74.46
2018-12-12T16:22:32.949Z,74.89
2018-12-12T16:25:57.636Z,75.25
2018-12-12T16:29:22.408Z,75.60
2018-12-12T16:32:47.291Z,75.48
2018-12-12T16:36:12.015Z,75.24
2018-12-12T16:39:36.755Z,76.05
2018-12-12T16:43:01.566Z,76.11
2018-12-12T16:46:26.284Z,75.81
2018-12-12T16:49:51.030Z,76.46
2018-12-12T16:53:16.620Z,76.03
2018-12-12T16:56:41.382Z,75.65
2018-12-12T17:00:08.709Z,76.80
2018-12-12T17:03:33.411Z,76.94
2018-12-12T17:06:58.148Z,76.27
2018-12-12T17:10:22.830Z,76.75
2018-12-12T17:13:47.548Z,76.30
2018-12-12T17:17:12.205Z,76.65
2018-12-12T17:20:36.929Z,76.62
2018-12-12T17:24:01.633Z,76.16
2018-12-12T17:27:26.323Z,76.55
2018-12-12T17:30:51.029Z,76.50
2018-12-12T17:34:15.734Z,76.91
2018-12-12T17:37:40.467Z,76.83
2018-12-12T17:41:05.201Z,76.58
2018-12-12T17:44:29.799Z,76.28
2018-12-12T17:47:54.512Z,76.00
2018-12-12T17:51:19.242Z,77.38
2018-12-12T17:54:43.967Z,76.42
2018-12-12T17:58:08.649Z,76.50
2018-12-12T18:01:33.377Z,76.80
2018-12-12T18:04:58.093Z,75.92
2018-12-12T18:08:22.741Z,76.80
2018-12-12T18:11:47.406Z,76.43
2018-12-12T18:15:12.087Z,76.51
2018-12-12T18:18:36.742Z,76.75
2018-12-12T18:22:01.422Z,76.36
2018-12-12T18:25:26.071Z,77.44
2018-12-12T18:28:50.776Z,76.50
2018-12-12T18:32:15.450Z,75.83
2018-12-12T18:35:40.439Z,76.89
2018-12-12T18:39:07.709Z,76.65
2018-12-12T18:42:32.473Z,76.73
2018-12-12T18:45:57.233Z,76.81
2018-12-12T18:49:21.919Z,77.31
2018-12-12T18:52:46.608Z,77.37
2018-12-12T18:56:11.410Z,76.58
2018-12-12T18:59:36.110Z,77.54
2018-12-12T19:03:01.461Z,77.50
2018-12-12T19:06:26.143Z,77.30
2018-12-12T19:09:50.868Z,77.39
2018-12-12T19:13:16.457Z,77.68
2018-12-12T19:16:41.281Z,77.25
2018-12-12T19:20:07.701Z,77.47
2018-12-12T19:23:32.551Z,77.70
2018-12-12T19:26:57.263Z,77.80
2018-12-12T19:30:21.944Z,77.61
2018-12-12T19:33:46.640Z,77.46
2018-12-12T19:37:11.384Z,77.39
2018-12-12T19:40:36.103Z,78.11
2018-12-12T19:44:00.784Z,77.40
2018-12-12T19:47:25.521Z,78.12
2018-12-12T19:50:50.372Z,78.16
2018-12-12T19:54:15.097Z,78.05
2018-12-12T19:57:39.905Z,77.50
2018-12-12T20:01:04.634Z,78.66
2018-12-12T20:04:29.375Z,78.81
2018-12-12T20:07:54.072Z,78.18
2018-12-12T20:11:18.773Z,77.95
2018-12-12T20:14:43.447Z,78.27
2018-12-12T20:18:08.138Z,79.12
2018-12-12T20:21:32.910Z,78.62
2018-12-12T20:24:57.609Z,78.51
2018-12-12T20:28:22.394Z,78.59
2018-12-12T20:31:47.113Z,79.21
2018-12-12T20:35:11.840Z,79.68
2018-12-12T20:38:36.565Z,78.90
2018-12-12T20:42:01.282Z,78.42
2018-12-12T20:45:26.073Z,78.62
2018-12-12T20:48:51.769Z,78.02
2018-12-12T20:52:16.469Z,77.89
2018-12-12T20:55:41.317Z,77.47
2018-12-12T20:59:06.353Z,77.35
2018-12-12T21:02:31.039Z,76.35
2018-12-12T21:05:56.290Z,77.29
2018-12-12T21:09:21.268Z,76.86
2018-12-12T21:12:46.576Z,76.98
2018-12-12T21:16:12.210Z,76.39
2018-12-12T21:19:37.560Z,75.81
2018-12-12T21:23:02.570Z,76.79
2018-12-12T21:26:27.680Z,76.44
2018-12-12T21:29:52.546Z,76.33
2018-12-12T21:33:17.538Z,75.95
2018-12-12T21:36:42.343Z,75.80
2018-12-12T21:40:07.281Z,75.83
2018-12-12T21:43:32.112Z,75.76
2018-12-12T21:46:56.823Z,75.99
2018-12-12T21:50:21.636Z,75.36
2018-12-12T21:53:47.978Z,75.52
2018-12-12T21:57:13.113Z,75.00
2018-12-12T22:00:37.886Z,75.42
2018-12-12T22:08:06.491Z,75.39
2018-12-12T22:15:13.336Z,75.44
2018-12-12T22:18:39.832Z,75.18
2018-12-12T22:22:16.142Z,75.87
2018-12-12T22:25:40.912Z,75.40
2018-12-12T22:32:58.853Z,75.41
2018-12-12T22:36:23.840Z,74.79
2018-12-12T22:39:48.572Z,75.13
2018-12-12T22:43:13.432Z,74.81
2018-12-12T22:46:38.313Z,74.60
2018-12-12T22:50:03.178Z,75.06
2018-12-12T22:53:27.895Z,74.48
2018-12-12T22:56:52.596Z,74.85
2018-12-12T23:00:22.536Z,74.08
2018-12-12T23:03:47.227Z,75.10
2018-12-12T23:07:11.919Z,74.55
2018-12-12T23:10:36.637Z,75.04
2018-12-12T23:14:01.282Z,74.60
2018-12-12T23:17:25.998Z,73.42
2018-12-12T23:20:50.653Z,73.27
2018-12-12T23:24:15.379Z,73.88
2018-12-12T23:27:40.072Z,74.34
2018-12-12T23:31:04.770Z,73.75
2018-12-12T23:34:29.517Z,74.15
2018-12-12T23:37:54.273Z,74.50
2018-12-12T23:41:19.037Z,74.68
2018-12-12T23:44:43.789Z,74.91
2018-12-12T23:48:08.448Z,74.16
2018-12-12T23:51:34.786Z,73.70
2018-12-12T23:54:59.431Z,74.27
2018-12-12T23:58:24.059Z,74.34
